Time;durP1;ratioP1;P1;durP2;ratioP2;P2;SDS_P1;SDS_P2;PMS_P1;PMS_P2;Temp;Humidity;BMP_temperature;BMP_pressure;BME280_temperature;BME280_humidity;BME280_pressure;Samples;Min_cycle;Max_cycle;Signal;HPM_P1;HPM_P2
2021/09/08 00:02:26;;;;;;;;;;;27.10;99.90;;;;;;1844816;76;20288;-91
2021/09/08 00:04:57;;;;;;;;;;;27.20;99.90;;;;;;1849464;78;20198;-92
2021/09/08 00:07:26;;;;;;;;;;;27.20;99.90;;;;;;1840606;76;20204;-91
2021/09/08 00:09:56;;;;;;;;;;;27.20;99.90;;;;;;1847935;76;20202;-91
2021/09/08 00:12:26;;;;;;;;;;;27.20;99.90;;;;;;1847680;76;20230;-91
2021/09/08 00:14:56;;;;;;;;;;;27.20;99.90;;;;;;1837385;77;20303;-91
2021/09/08 00:17:25;;;;;;;;;;;27.30;99.90;;;;;;1850514;76;20214;-90
2021/09/08 00:19:55;;;;;;;;;;;27.30;99.90;;;;;;1854546;76;20614;-91
2021/09/08 00:22:25;;;;;;;;;;;27.30;99.90;;;;;;1847268;76;20215;-91
2021/09/08 00:24:54;;;;;;;;;;;27.30;99.90;;;;;;1851375;76;20194;-91
2021/09/08 00:27:25;;;;;;;;;;;27.40;99.90;;;;;;1840562;77;20212;-93
2021/09/08 00:29:57;;;;;;;;;;;27.40;99.90;;;;;;1844328;76;20198;-92
2021/09/08 00:32:27;;;;;;;;;;;27.50;99.90;;;;;;1835926;77;20222;-92
2021/09/08 00:35:00;;;;;;;;;;;27.50;99.90;;;;;;1817969;78;20208;-92
2021/09/08 00:37:30;;;;;;;;;;;27.60;99.90;;;;;;1806592;79;20243;-92
2021/09/08 00:40:00;;;;;;;;;;;27.50;99.90;;;;;;1787511;79;20196;-92
2021/09/08 00:42:30;;;;;;;;;;;27.60;99.90;;;;;;1793032;79;20188;-92
2021/09/08 00:44:59;;;;;;;;;;;27.60;99.90;;;;;;1809086;79;20744;-91
2021/09/08 00:47:29;;;;;;;;;;;27.70;99.90;;;;;;1810132;78;20214;-92
2021/09/08 00:49:59;;;;;;;;;;;27.70;99.90;;;;;;1816790;78;20169;-90
2021/09/08 00:52:31;;;;;;;;;;;27.70;99.90;;;;;;1822957;78;20268;-90
2021/09/08 00:55:05;;;;;;;;;;;27.80;99.90;;;;;;1800579;78;20189;-81
2021/09/08 00:57:35;;;;;;;;;;;27.80;99.90;;;;;;1825275;78;20214;-79
2021/09/08 01:00:06;;;;;;;;;;;27.90;99.90;;;;;;1820026;78;20225;-79
2021/09/08 01:02:37;;;;;;;;;;;27.90;99.90;;;;;;1810165;78;20681;-79
2021/09/08 01:05:07;;;;;;;;;;;28.00;99.90;;;;;;1822273;78;20205;-79
2021/09/08 01:07:38;;;;;;;;;;;28.00;99.90;;;;;;1819940;78;20175;-79
2021/09/08 01:10:08;;;;;;;;;;;28.10;99.90;;;;;;1791930;79;20248;-79
2021/09/08 01:12:38;;;;;;;;;;;28.20;99.90;;;;;;1807034;79;20259;-78
2021/09/08 01:15:08;;;;;;;;;;;28.20;99.90;;;;;;1807933;78;20218;-78
2021/09/08 01:17:38;;;;;;;;;;;28.20;99.90;;;;;;1820154;78;20188;-78
2021/09/08 01:20:08;;;;;;;;;;;28.30;99.90;;;;;;1806133;78;20215;-79
2021/09/08 01:22:39;;;;;;;;;;;28.30;99.90;;;;;;1815047;78;20299;-79
2021/09/08 01:25:09;;;;;;;;;;;28.40;99.90;;;;;;1819240;78;20284;-79
2021/09/08 01:27:38;;;;;;;;;;;28.40;99.90;;;;;;1814860;78;20222;-78
2021/09/08 01:30:08;;;;;;;;;;;28.50;99.90;;;;;;1817034;78;20721;-78
2021/09/08 01:32:38;;;;;;;;;;;28.50;99.90;;;;;;1818286;78;20205;-79
2021/09/08 01:35:08;;;;;;;;;;;28.50;99.90;;;;;;1827202;77;20266;-79
2021/09/08 01:37:38;;;;;;;;;;;28.50;99.90;;;;;;1782832;78;20899;-79
2021/09/08 01:40:09;;;;;;;;;;;28.50;99.90;;;;;;1781477;79;20237;-79
2021/09/08 01:42:42;;;;;;;;;;;28.60;99.90;;;;;;1784858;78;20249;-79
2021/09/08 01:45:13;;;;;;;;;;;28.60;99.90;;;;;;1783747;79;20182;-79
2021/09/08 01:47:43;;;;;;;;;;;28.60;99.80;;;;;;1843491;77;20230;-80
2021/09/08 01:50:16;;;;;;;;;;;28.60;99.90;;;;;;1784918;78;20193;-78
2021/09/08 01:52:46;;;;;;;;;;;28.60;99.70;;;;;;1786550;79;20454;-78
2021/09/08 01:55:15;;;;;;;;;;;28.60;99.80;;;;;;1783082;78;20206;-79
2021/09/08 01:57:45;;;;;;;;;;;28.60;99.90;;;;;;1785452;79;20313;-79
2021/09/08 02:00:15;;;;;;;;;;;28.60;99.60;;;;;;1783504;79;20278;-79
2021/09/08 02:02:45;;;;;;;;;;;28.60;99.70;;;;;;1805316;78;20208;-79
2021/09/08 02:05:16;;;;;;;;;;;28.60;99.90;;;;;;1814587;77;20303;-80
2021/09/08 02:07:46;;;;;;;;;;;28.60;99.80;;;;;;1819766;77;20170;-79
2021/09/08 02:10:15;;;;;;;;;;;28.60;99.90;;;;;;1809259;77;20274;-77
2021/09/08 02:12:55;;;;;;;;;;;28.50;99.90;;;;;;1814053;77;20204;-79
2021/09/08 02:16:23;;;;;;;;;;;28.50;99.90;;;;;;1821551;77;20309;-80
2021/09/08 02:21:53;;;;;;;;;;;28.50;99.90;;;;;;1780696;77;20211;-78
2021/09/08 02:24:45;;;;;;;;;;;28.40;99.90;;;;;;1777495;78;20186;-79
2021/09/08 02:27:36;;;;;;;;;;;28.40;99.90;;;;;;1785514;78;20287;-79
2021/09/08 02:30:07;;;;;;;;;;;28.20;99.90;;;;;;1812030;77;20240;-77
2021/09/08 02:32:36;;;;;;;;;;;28.10;99.90;;;;;;1808852;77;20175;-77
2021/09/08 02:35:08;;;;;;;;;;;28.00;99.90;;;;;;1809337;78;20251;-79
2021/09/08 02:37:57;;;;;;;;;;;27.90;99.90;;;;;;1799565;78;20480;-78
2021/09/08 02:40:29;;;;;;;;;;;27.80;99.90;;;;;;1807197;78;20427;-79
2021/09/08 02:42:59;;;;;;;;;;;27.70;99.90;;;;;;1789895;78;20256;-76
2021/09/08 02:45:37;;;;;;;;;;;27.60;99.90;;;;;;1814025;77;20231;-76
2021/09/08 02:48:10;;;;;;;;;;;27.60;99.90;;;;;;1791892;79;20231;-76
2021/09/08 02:50:43;;;;;;;;;;;27.40;99.90;;;;;;1785143;79;20431;-76
2021/09/08 02:53:16;;;;;;;;;;;27.30;99.90;;;;;;1778012;78;20208;-77
2021/09/08 02:56:05;;;;;;;;;;;27.20;99.90;;;;;;1800609;78;20229;-78
2021/09/08 02:58:36;;;;;;;;;;;27.00;99.90;;;;;;1797892;78;20255;-78
2021/09/08 03:01:14;;;;;;;;;;;26.90;99.90;;;;;;1808596;78;20143;-79
2021/09/08 03:06:42;;;;;;;;;;;26.70;99.90;;;;;;1568693;89;20300;-82
2021/09/08 03:15:03;;;;;;;;;;;26.50;99.90;;;;;;1574680;89;20207;-77
2021/09/08 03:38:56;;;;;;;;;;;26.50;99.90;;;;;;1989632;71;20225;-78
2021/09/08 03:41:25;;;;;;;;;;;26.70;99.90;;;;;;1985267;71;20536;-77
2021/09/08 03:44:12;;;;;;;;;;;26.70;99.90;;;;;;1969482;71;20532;-78
2021/09/08 03:49:48;;;;;;;;;;;26.60;99.90;;;;;;1967949;72;20243;-78
2021/09/08 03:52:27;;;;;;;;;;;26.70;99.90;;;;;;1972806;72;20198;-77
2021/09/08 03:54:57;;;;;;;;;;;26.70;99.90;;;;;;1974610;71;20591;-78
2021/09/08 03:57:27;;;;;;;;;;;26.70;99.90;;;;;;1980412;71;20207;-78
2021/09/08 04:00:34;;;;;;;;;;;26.70;99.90;;;;;;1973893;71;20805;-77
2021/09/08 04:02:53;;;;;;;;;;;26.70;99.90;;;;;;1982203;71;20228;-77
2021/09/08 04:05:23;;;;;;;;;;;26.70;99.90;;;;;;1971960;71;20672;-79
2021/09/08 04:07:52;;;;;;;;;;;26.70;99.90;;;;;;1966876;72;20318;-77
2021/09/08 04:10:23;;;;;;;;;;;26.60;99.90;;;;;;1974405;71;20598;-76
2021/09/08 04:12:53;;;;;;;;;;;26.70;99.90;;;;;;1976824;71;20209;-77
2021/09/08 04:15:22;;;;;;;;;;;26.70;99.90;;;;;;1973549;71;20365;-78
2021/09/08 04:17:52;;;;;;;;;;;26.60;99.90;;;;;;1979646;71;20570;-77
2021/09/08 04:20:22;;;;;;;;;;;26.60;99.90;;;;;;1990506;72;20187;-78
2021/09/08 04:22:52;;;;;;;;;;;26.50;99.90;;;;;;1986709;71;20166;-77
2021/09/08 04:25:22;;;;;;;;;;;26.50;99.90;;;;;;1984884;71;20191;-78
2021/09/08 04:27:52;;;;;;;;;;;26.40;99.90;;;;;;1981003;72;20254;-78
2021/09/08 04:30:22;;;;;;;;;;;26.30;99.90;;;;;;1982183;71;20248;-78
2021/09/08 04:32:51;;;;;;;;;;;26.30;99.90;;;;;;1985719;71;20191;-77
2021/09/08 04:35:22;;;;;;;;;;;26.30;99.90;;;;;;1989778;71;20169;-78
2021/09/08 04:37:52;;;;;;;;;;;26.40;99.90;;;;;;1992021;71;20613;-78
2021/09/08 04:40:22;;;;;;;;;;;26.40;99.90;;;;;;1991409;71;20537;-78
2021/09/08 04:42:52;;;;;;;;;;;26.50;99.90;;;;;;1994352;71;20237;-79
2021/09/08 04:45:21;;;;;;;;;;;26.60;99.90;;;;;;1971085;72;20566;-79
2021/09/08 04:47:51;;;;;;;;;;;26.60;99.90;;;;;;1984097;70;20199;-78
2021/09/08 04:50:21;;;;;;;;;;;26.60;99.90;;;;;;1991041;71;20602;-79
2021/09/08 04:52:51;;;;;;;;;;;26.70;99.90;;;;;;1992209;70;20241;-78
2021/09/08 04:55:20;;;;;;;;;;;26.60;99.90;;;;;;2001056;71;20249;-79
2021/09/08 04:57:50;;;;;;;;;;;26.70;99.90;;;;;;1993030;72;20253;-79
2021/09/08 05:00:20;;;;;;;;;;;26.70;99.90;;;;;;1981041;71;20227;-78
2021/09/08 05:02:50;;;;;;;;;;;26.80;99.90;;;;;;1977130;71;20207;-78
2021/09/08 05:05:20;;;;;;;;;;;26.80;99.90;;;;;;1991905;71;20309;-79
2021/09/08 05:07:51;;;;;;;;;;;26.80;99.90;;;;;;1976968;72;20224;-79
2021/09/08 05:10:21;;;;;;;;;;;26.70;99.90;;;;;;1995524;71;20259;-76
2021/09/08 05:12:51;;;;;;;;;;;26.80;99.90;;;;;;1993962;72;20295;-78
2021/09/08 05:15:21;;;;;;;;;;;26.80;99.90;;;;;;1993467;72;20253;-77
2021/09/08 05:17:51;;;;;;;;;;;26.80;99.90;;;;;;1982645;71;20320;-79
2021/09/08 05:20:21;;;;;;;;;;;26.90;99.90;;;;;;1989501;72;20195;-77
2021/09/08 05:22:50;;;;;;;;;;;26.90;99.90;;;;;;1989118;71;20253;-78
2021/09/08 05:25:22;;;;;;;;;;;27.00;99.90;;;;;;1981686;71;20179;-78
2021/09/08 05:27:52;;;;;;;;;;;27.00;99.90;;;;;;1969075;72;20173;-78
2021/09/08 05:30:22;;;;;;;;;;;27.00;99.90;;;;;;1985041;71;20230;-78
2021/09/08 05:32:52;;;;;;;;;;;27.00;99.90;;;;;;1962699;72;20203;-78
2021/09/08 05:35:22;;;;;;;;;;;27.00;99.90;;;;;;1996346;71;20214;-78
2021/09/08 05:37:52;;;;;;;;;;;27.20;99.90;;;;;;1981607;70;20214;-79
2021/09/08 05:40:24;;;;;;;;;;;27.20;99.90;;;;;;1987262;71;20238;-78
2021/09/08 05:42:55;;;;;;;;;;;27.30;99.90;;;;;;1984104;71;20182;-79
2021/09/08 05:45:25;;;;;;;;;;;27.30;99.90;;;;;;1972280;71;20217;-79
2021/09/08 05:47:55;;;;;;;;;;;27.30;99.90;;;;;;1993107;72;20179;-78
2021/09/08 05:50:24;;;;;;;;;;;27.30;99.90;;;;;;1985591;71;20207;-79
2021/09/08 05:52:54;;;;;;;;;;;27.30;99.90;;;;;;1987561;72;20304;-78
2021/09/08 05:55:24;;;;;;;;;;;27.30;99.90;;;;;;1979509;71;20636;-78
2021/09/08 05:57:53;;;;;;;;;;;27.40;99.90;;;;;;1996221;71;20226;-79
2021/09/08 06:00:23;;;;;;;;;;;27.40;99.90;;;;;;1989124;72;20194;-79
2021/09/08 06:02:56;;;;;;;;;;;27.40;99.90;;;;;;1984355;71;20278;-78
2021/09/08 06:05:29;;;;;;;;;;;27.40;99.90;;;;;;1974588;72;20222;-79
2021/09/08 06:07:59;;;;;;;;;;;27.50;99.90;;;;;;1981210;72;20685;-79
2021/09/08 06:10:29;;;;;;;;;;;27.50;99.90;;;;;;1997873;70;20193;-78
2021/09/08 06:12:59;;;;;;;;;;;27.50;99.90;;;;;;1992017;72;20273;-78
2021/09/08 06:15:29;;;;;;;;;;;27.60;99.90;;;;;;1982999;70;20368;-78
2021/09/08 06:18:04;;;;;;;;;;;27.60;99.90;;;;;;1970777;72;20131;-78
2021/09/08 06:20:38;;;;;;;;;;;27.80;99.90;;;;;;1970160;72;20261;-78
2021/09/08 06:23:09;;;;;;;;;;;27.90;99.90;;;;;;1975274;72;20216;-78
2021/09/08 06:25:39;;;;;;;;;;;28.00;99.90;;;;;;1979596;72;20521;-78
2021/09/08 06:28:09;;;;;;;;;;;28.10;99.90;;;;;;1978366;72;20254;-78
2021/09/08 06:30:38;;;;;;;;;;;28.20;99.90;;;;;;1981424;71;20210;-78
2021/09/08 06:33:08;;;;;;;;;;;28.20;99.90;;;;;;1975233;72;20307;-78
2021/09/08 06:35:38;;;;;;;;;;;28.30;99.90;;;;;;1986868;71;20260;-77
2021/09/08 06:38:17;;;;;;;;;;;28.40;99.90;;;;;;1981148;71;20169;-77
2021/09/08 06:40:51;;;;;;;;;;;28.40;99.40;;;;;;1967090;72;20473;-78
2021/09/08 06:43:18;;;;;;;;;;;28.40;99.60;;;;;;1963117;71;20247;-78
2021/09/08 06:45:48;;;;;;;;;;;28.40;99.80;;;;;;1977139;72;20211;-78
2021/09/08 06:48:18;;;;;;;;;;;28.40;99.20;;;;;;1971208;72;20177;-78
2021/09/08 06:50:48;;;;;;;;;;;28.40;99.80;;;;;;1970166;72;20214;-78
2021/09/08 06:53:24;;;;;;;;;;;28.40;99.80;;;;;;1975077;72;20386;-77
2021/09/08 06:55:54;;;;;;;;;;;28.40;99.90;;;;;;1985761;72;20183;-76
2021/09/08 06:58:25;;;;;;;;;;;28.40;99.80;;;;;;1971779;72;20238;-77
2021/09/08 07:00:55;;;;;;;;;;;28.50;99.90;;;;;;1984885;71;20836;-78
2021/09/08 07:03:26;;;;;;;;;;;28.50;99.90;;;;;;1948130;72;20281;-78
2021/09/08 07:05:57;;;;;;;;;;;28.50;99.90;;;;;;1970852;72;20273;-79
2021/09/08 07:08:27;;;;;;;;;;;28.60;99.90;;;;;;1982475;71;20271;-79
2021/09/08 07:10:56;;;;;;;;;;;28.60;99.90;;;;;;1981450;72;20225;-78
2021/09/08 07:13:26;;;;;;;;;;;28.70;99.90;;;;;;1979786;72;20215;-78
2021/09/08 07:15:56;;;;;;;;;;;28.60;99.90;;;;;;1979269;71;20274;-79
2021/09/08 07:18:25;;;;;;;;;;;28.60;99.90;;;;;;1982632;71;20337;-78
2021/09/08 07:21:03;;;;;;;;;;;28.60;99.90;;;;;;1987151;71;20458;-79
2021/09/08 07:23:33;;;;;;;;;;;28.60;99.90;;;;;;1989512;71;20198;-79
2021/09/08 07:26:06;;;;;;;;;;;28.60;99.90;;;;;;1984189;71;20260;-79
2021/09/08 07:28:37;;;;;;;;;;;28.60;99.90;;;;;;1986364;71;20202;-79
2021/09/08 07:31:07;;;;;;;;;;;28.60;99.90;;;;;;1957365;72;20245;-79
2021/09/08 07:33:36;;;;;;;;;;;28.60;99.90;;;;;;1987619;71;20224;-79
2021/09/08 07:36:08;;;;;;;;;;;28.60;99.90;;;;;;1980832;71;20509;-77
2021/09/08 07:38:38;;;;;;;;;;;28.60;99.90;;;;;;1983601;72;20335;-79
2021/09/08 07:41:08;;;;;;;;;;;28.60;99.90;;;;;;1987381;72;20303;-79
2021/09/08 07:43:38;;;;;;;;;;;28.70;99.90;;;;;;1990785;72;20600;-78
2021/09/08 07:46:07;;;;;;;;;;;28.60;99.90;;;;;;1992504;72;20508;-77
2021/09/08 07:48:37;;;;;;;;;;;28.60;99.90;;;;;;1991456;72;20242;-78
2021/09/08 07:51:07;;;;;;;;;;;28.60;99.90;;;;;;1992934;72;20226;-77
2021/09/08 07:53:37;;;;;;;;;;;28.60;99.90;;;;;;1987742;72;20575;-77
2021/09/08 07:56:10;;;;;;;;;;;28.60;99.90;;;;;;1985801;72;20195;-78
2021/09/08 07:58:40;;;;;;;;;;;28.50;99.90;;;;;;1984915;72;20252;-77
2021/09/08 08:01:12;;;;;;;;;;;28.50;99.90;;;;;;1994952;71;20237;-78
2021/09/08 08:03:42;;;;;;;;;;;28.50;99.90;;;;;;1991015;72;20207;-78
2021/09/08 08:06:14;;;;;;;;;;;28.50;99.90;;;;;;1987521;72;20268;-79
2021/09/08 08:08:53;;;;;;;;;;;28.50;99.90;;;;;;1992771;72;20478;-78
2021/09/08 08:11:22;;;;;;;;;;;28.50;99.90;;;;;;1989212;71;20198;-78
2021/09/08 08:13:52;;;;;;;;;;;28.40;99.90;;;;;;1981300;71;20270;-78
2021/09/08 08:16:23;;;;;;;;;;;28.40;99.90;;;;;;1987383;71;20193;-78
2021/09/08 08:18:53;;;;;;;;;;;28.40;99.90;;;;;;1985391;71;20747;-79
2021/09/08 08:21:22;;;;;;;;;;;28.30;99.90;;;;;;1965569;71;20575;-77
2021/09/08 08:23:53;;;;;;;;;;;28.30;99.90;;;;;;1993211;71;20227;-78
2021/09/08 08:26:22;;;;;;;;;;;28.40;99.90;;;;;;1974796;72;20237;-78
2021/09/08 08:28:53;;;;;;;;;;;28.30;99.90;;;;;;1980558;70;20268;-77
2021/09/08 08:31:23;;;;;;;;;;;28.30;99.90;;;;;;1981014;70;20256;-77
2021/09/08 08:33:53;;;;;;;;;;;28.30;99.90;;;;;;1987643;70;20195;-80
2021/09/08 08:36:23;;;;;;;;;;;28.20;99.90;;;;;;1977167;72;20402;-78
2021/09/08 08:38:52;;;;;;;;;;;28.20;99.90;;;;;;1979201;72;20335;-78
2021/09/08 08:41:23;;;;;;;;;;;28.30;99.90;;;;;;1974173;71;20190;-78
2021/09/08 08:43:53;;;;;;;;;;;28.30;99.90;;;;;;2002199;71;20240;-77
2021/09/08 08:46:22;;;;;;;;;;;28.30;99.90;;;;;;1981816;71;20216;-77
2021/09/08 08:48:52;;;;;;;;;;;28.30;99.90;;;;;;1989257;71;20219;-77
2021/09/08 08:51:22;;;;;;;;;;;28.30;99.70;;;;;;1988463;71;20604;-77
2021/09/08 08:53:52;;;;;;;;;;;28.20;97.80;;;;;;2003471;71;20172;-78
2021/09/08 08:56:23;;;;;;;;;;;27.90;98.00;;;;;;2003967;71;20199;-78
2021/09/08 08:58:53;;;;;;;;;;;27.70;97.70;;;;;;1975793;71;20194;-79
2021/09/08 09:01:24;;;;;;;;;;;27.50;98.50;;;;;;1981934;71;20187;-77
2021/09/08 09:03:55;;;;;;;;;;;27.30;99.50;;;;;;1997896;71;20195;-77
2021/09/08 09:06:25;;;;;;;;;;;27.20;99.90;;;;;;1992364;71;20426;-75
2021/09/08 09:08:56;;;;;;;;;;;26.90;99.90;;;;;;1976857;71;20173;-76
2021/09/08 09:11:26;;;;;;;;;;;26.70;99.90;;;;;;1970818;72;20397;-75
2021/09/08 09:13:56;;;;;;;;;;;26.50;99.90;;;;;;1968998;71;20645;-76
2021/09/08 09:16:28;;;;;;;;;;;26.20;99.90;;;;;;1996436;71;20371;-75
2021/09/08 09:18:58;;;;;;;;;;;26.00;99.90;;;;;;2003196;71;20229;-75
2021/09/08 09:21:28;;;;;;;;;;;25.80;99.90;;;;;;1983087;71;20531;-76
2021/09/08 09:23:59;;;;;;;;;;;25.70;99.90;;;;;;1993041;71;20225;-75
2021/09/08 09:26:32;;;;;;;;;;;25.60;99.90;;;;;;2000826;71;20340;-76
2021/09/08 09:29:09;;;;;;;;;;;25.60;99.90;;;;;;1989744;71;20138;-76
2021/09/08 09:31:42;;;;;;;;;;;25.50;99.90;;;;;;1990804;72;20214;-77
2021/09/08 09:34:17;;;;;;;;;;;25.50;99.90;;;;;;1963630;72;20210;-76
2021/09/08 09:36:50;;;;;;;;;;;25.50;99.90;;;;;;1969533;71;20221;-75
2021/09/08 09:39:21;;;;;;;;;;;25.40;99.90;;;;;;1943684;73;20571;-77
2021/09/08 09:41:51;;;;;;;;;;;25.30;99.90;;;;;;1940997;73;20213;-74
2021/09/08 09:44:21;;;;;;;;;;;25.20;99.90;;;;;;1964858;72;20236;-76
2021/09/08 09:46:52;;;;;;;;;;;25.20;99.90;;;;;;1944804;72;20581;-76
2021/09/08 09:49:26;;;;;;;;;;;25.20;99.90;;;;;;1967657;72;20171;-77
2021/09/08 09:51:59;;;;;;;;;;;25.20;99.90;;;;;;1972416;72;20193;-77
2021/09/08 09:54:28;;;;;;;;;;;25.00;99.90;;;;;;1983857;72;20181;-77
2021/09/08 09:56:58;;;;;;;;;;;24.80;99.90;;;;;;1977606;72;20543;-78
2021/09/08 09:59:31;;;;;;;;;;;24.80;99.90;;;;;;1986794;72;20191;-76
2021/09/08 10:02:01;;;;;;;;;;;24.70;99.90;;;;;;1964344;72;20225;-77
2021/09/08 10:04:31;;;;;;;;;;;24.60;99.90;;;;;;1980442;72;20622;-78
2021/09/08 10:07:01;;;;;;;;;;;24.60;99.90;;;;;;1974421;72;20249;-79
2021/09/08 10:09:31;;;;;;;;;;;24.50;99.90;;;;;;1980328;72;20204;-80
2021/09/08 10:12:02;;;;;;;;;;;24.50;99.90;;;;;;1981198;71;20183;-83
2021/09/08 10:14:48;;;;;;;;;;;24.50;99.90;;;;;;1984998;72;20342;-78
2021/09/08 10:17:19;;;;;;;;;;;24.50;99.90;;;;;;1983030;72;20199;-78
2021/09/08 10:19:50;;;;;;;;;;;24.40;99.90;;;;;;1984771;72;20177;-77
2021/09/08 10:22:21;;;;;;;;;;;24.40;99.90;;;;;;1976750;72;20199;-76
2021/09/08 10:24:53;;;;;;;;;;;24.40;99.90;;;;;;1987447;72;20225;-77
2021/09/08 10:27:26;;;;;;;;;;;24.40;99.90;;;;;;1988319;71;20204;-78
2021/09/08 10:29:57;;;;;;;;;;;24.50;99.90;;;;;;1973792;71;20705;-76
2021/09/08 10:32:40;;;;;;;;;;;24.50;99.90;;;;;;1986082;72;20182;-75
2021/09/08 10:35:14;;;;;;;;;;;24.60;99.90;;;;;;1972861;71;20249;-76
2021/09/08 10:37:46;;;;;;;;;;;24.60;99.90;;;;;;1985094;71;20199;-76
2021/09/08 10:40:18;;;;;;;;;;;24.60;99.90;;;;;;1992729;71;20180;-79
2021/09/08 10:42:50;;;;;;;;;;;24.60;99.90;;;;;;1977742;72;20551;-78
2021/09/08 10:45:21;;;;;;;;;;;24.60;99.90;;;;;;1981609;72;20535;-78
2021/09/08 10:47:51;;;;;;;;;;;24.50;99.90;;;;;;1981583;72;20231;-76
2021/09/08 10:50:22;;;;;;;;;;;24.60;99.90;;;;;;2000902;70;20205;-79
2021/09/08 10:52:52;;;;;;;;;;;24.60;99.90;;;;;;1982059;70;20308;-79
2021/09/08 10:55:23;;;;;;;;;;;24.50;99.90;;;;;;2004336;70;20214;-77
2021/09/08 10:57:54;;;;;;;;;;;24.50;99.90;;;;;;2005537;70;20203;-77
2021/09/08 11:00:26;;;;;;;;;;;24.40;99.90;;;;;;1992665;70;20187;-77
2021/09/08 11:02:55;;;;;;;;;;;24.20;99.90;;;;;;2005560;70;20230;-77
2021/09/08 11:05:26;;;;;;;;;;;24.20;99.90;;;;;;1988781;70;20262;-74
2021/09/08 11:07:59;;;;;;;;;;;24.20;99.90;;;;;;1985624;70;20217;-76
2021/09/08 11:10:30;;;;;;;;;;;24.20;99.90;;;;;;1991114;70;20344;-77
2021/09/08 11:13:01;;;;;;;;;;;24.20;99.90;;;;;;1982169;71;20422;-78
2021/09/08 11:15:32;;;;;;;;;;;24.20;99.90;;;;;;1987511;71;20271;-77
2021/09/08 11:18:03;;;;;;;;;;;24.20;99.90;;;;;;1988951;72;20193;-78
2021/09/08 11:20:36;;;;;;;;;;;24.20;99.90;;;;;;1951706;72;20235;-78
2021/09/08 11:23:07;;;;;;;;;;;24.20;99.90;;;;;;1992062;71;20159;-77
2021/09/08 11:25:38;;;;;;;;;;;24.30;99.90;;;;;;1982927;71;20166;-77
2021/09/08 11:28:13;;;;;;;;;;;24.20;99.90;;;;;;1965231;72;20158;-82
2021/09/08 11:30:44;;;;;;;;;;;24.20;99.90;;;;;;1993081;71;20136;-78
2021/09/08 11:33:16;;;;;;;;;;;24.30;99.90;;;;;;1984614;71;20255;-79
2021/09/08 11:35:47;;;;;;;;;;;24.30;99.90;;;;;;1989730;71;20235;-78
2021/09/08 11:38:18;;;;;;;;;;;24.30;99.90;;;;;;1992284;71;20320;-78
2021/09/08 11:40:49;;;;;;;;;;;24.30;99.90;;;;;;1987436;71;20195;-78
2021/09/08 11:43:22;;;;;;;;;;;24.40;99.90;;;;;;1954138;72;20262;-78
2021/09/08 11:45:51;;;;;;;;;;;24.40;99.90;;;;;;1987665;71;20264;-78
2021/09/08 11:48:22;;;;;;;;;;;24.40;99.90;;;;;;1986308;71;20690;-78
2021/09/08 11:50:53;;;;;;;;;;;24.50;99.90;;;;;;1987688;70;20198;-78
2021/09/08 11:53:24;;;;;;;;;;;24.50;99.90;;;;;;1983516;72;20236;-78
2021/09/08 11:55:55;;;;;;;;;;;24.50;99.90;;;;;;1979647;72;20288;-78
2021/09/08 11:58:34;;;;;;;;;;;24.60;99.90;;;;;;1946260;72;20736;-78
2021/09/08 12:01:08;;;;;;;;;;;24.50;99.90;;;;;;1980381;72;20218;-77
2021/09/08 12:03:42;;;;;;;;;;;24.50;99.90;;;;;;1977314;71;20215;-77
2021/09/08 12:06:13;;;;;;;;;;;24.50;99.90;;;;;;1989744;72;20226;-78
2021/09/08 12:08:44;;;;;;;;;;;24.40;99.90;;;;;;1986844;70;20232;-78
2021/09/08 12:11:14;;;;;;;;;;;24.40;99.90;;;;;;1980984;72;20193;-78
2021/09/08 12:13:48;;;;;;;;;;;24.40;99.90;;;;;;1989917;70;20200;-77
2021/09/08 12:16:42;;;;;;;;;;;24.40;99.90;;;;;;1984204;70;20222;-81
2021/09/08 12:19:28;;;;;;;;;;;24.40;99.90;;;;;;1877516;72;20221;-78
2021/09/08 12:21:55;;;;;;;;;;;24.30;99.90;;;;;;1928038;72;20230;-77
2021/09/08 12:24:25;;;;;;;;;;;24.30;99.90;;;;;;1936729;72;20276;-78
2021/09/08 12:26:56;;;;;;;;;;;24.30;99.90;;;;;;1943438;72;20269;-78
2021/09/08 12:29:26;;;;;;;;;;;24.30;99.90;;;;;;1945471;72;20461;-78
2021/09/08 12:35:24;;;;;;;;;;;24.30;99.90;;;;;;1920211;72;20294;-79
2021/09/08 12:38:04;;;;;;;;;;;24.30;99.90;;;;;;1922886;72;20287;-80
2021/09/08 12:40:56;;;;;;;;;;;24.30;99.90;;;;;;1801399;78;20193;-80
2021/09/08 12:43:27;;;;;;;;;;;24.20;99.90;;;;;;1808844;78;20228;-78
2021/09/08 12:45:57;;;;;;;;;;;24.30;99.90;;;;;;1802426;79;20264;-78
2021/09/08 12:48:30;;;;;;;;;;;24.20;99.90;;;;;;1792516;79;20335;-78
2021/09/08 12:51:21;;;;;;;;;;;24.20;99.90;;;;;;1785693;79;20164;-79
2021/09/08 12:57:20;;;;;;;;;;;24.20;99.90;;;;;;1850844;77;20266;-93
2021/09/08 13:00:00;;;;;;;;;;;24.20;99.90;;;;;;1845824;77;20260;-92
2021/09/08 13:02:50;;;;;;;;;;;24.20;99.90;;;;;;1842113;77;20217;-92
2021/09/08 13:05:39;;;;;;;;;;;;;;;;;;;;;
2021/09/08 13:11:03;;;;;;;;;;;24.20;99.90;;;;;;1736957;81;20208;-94
2021/09/08 13:13:51;;;;;;;;;;;24.20;99.90;;;;;;1788405;80;20188;-94
2021/09/08 13:16:21;;;;;;;;;;;24.30;99.90;;;;;;1788653;80;20317;-94
2021/09/08 13:18:55;;;;;;;;;;;24.20;99.90;;;;;;1852831;76;20232;-94
2021/09/08 13:21:41;;;;;;;;;;;24.30;99.90;;;;;;1721624;80;21642;-94
2021/09/08 13:24:41;;;;;;;;;;;24.30;99.90;;;;;;1733601;82;20211;-93
2021/09/08 13:35:33;;;;;;;;;;;24.40;99.90;;;;;;1756904;78;20108;-93
2021/09/08 14:02:32;;;;;;;;;;;;;;;;;;;;;
2021/09/08 14:22:49;;;;;;;;;;;24.70;99.90;;;;;;1836836;73;20104;-96
2021/09/08 14:31:19;;;;;;;;;;;24.70;99.90;;;;;;1928206;70;20219;-95
2021/09/08 14:34:04;;;;;;;;;;;24.70;99.90;;;;;;1940344;73;20095;-94
2021/09/08 14:36:54;;;;;;;;;;;24.80;99.90;;;;;;1953721;70;21971;-90
2021/09/08 14:39:44;;;;;;;;;;;24.80;99.90;;;;;;1891727;75;20151;-91
2021/09/08 14:42:59;;;;;;;;;;;;;;;;;;;;;
2021/09/08 14:51:29;;;;;;;;;;;24.70;99.90;;;;;;1731649;83;20190;-94
2021/09/08 14:54:25;;;;;;;;;;;24.70;99.90;;;;;;1707835;78;20147;-93
2021/09/08 15:02:54;;;;;;;;;;;24.60;99.90;;;;;;1713025;76;20225;-95
2021/09/08 15:08:31;;;;;;;;;;;24.60;99.90;;;;;;1769506;77;20250;-93
2021/09/08 15:14:17;;;;;;;;;;;24.60;99.90;;;;;;1892130;75;20100;-92
2021/09/08 15:17:05;;;;;;;;;;;24.60;99.90;;;;;;1877629;74;20652;-94
2021/09/08 15:20:01;;;;;;;;;;;24.70;99.90;;;;;;1910942;75;20171;-94
2021/09/08 15:22:53;;;;;;;;;;;24.70;99.90;;;;;;1918172;73;20109;-92
2021/09/08 15:25:58;;;;;;;;;;;24.70;99.90;;;;;;1915690;69;20233;-94
2021/09/08 15:29:03;;;;;;;;;;;24.70;99.90;;;;;;1857081;77;20212;-93
2021/09/08 15:32:05;;;;;;;;;;;;;;;;;;;;;
2021/09/08 15:34:42;;;;;;;;;;;24.70;99.90;;;;;;1848850;77;20184;-94
2021/09/08 15:40:18;;;;;;;;;;;24.80;99.90;;;;;;1852203;75;20124;-93
2021/09/08 15:42:56;;;;;;;;;;;24.80;99.90;;;;;;1789248;78;20168;-94
2021/09/08 15:45:53;;;;;;;;;;;24.80;99.90;;;;;;1789552;78;20145;-94
2021/09/08 15:48:31;;;;;;;;;;;24.70;99.90;;;;;;1783432;78;20146;-94
2021/09/08 15:51:20;;;;;;;;;;;24.70;99.90;;;;;;1786835;78;20214;-94
2021/09/08 15:54:39;;;;;;;;;;;;;;;;;;;;;
2021/09/08 15:57:40;;;;;;;;;;;24.70;99.90;;;;;;1678283;82;20202;-95
2021/09/08 16:00:24;;;;;;;;;;;24.70;99.90;;;;;;1649401;86;20129;-95
2021/09/08 16:03:30;;;;;;;;;;;;;;;;;;;;;
2021/09/08 16:06:24;;;;;;;;;;;24.70;99.90;;;;;;1665314;83;20406;-94
2021/09/08 16:09:26;;;;;;;;;;;24.70;99.90;;;;;;1679536;82;20132;-93
2021/09/08 16:13:18;;;;;;;;;;;24.70;99.90;;;;;;1677361;81;20235;-94
2021/09/08 16:15:21;;;;;;;;;;;24.70;99.90;;;;;;1712971;82;20213;-93
2021/09/08 16:21:23;;;;;;;;;;;24.70;99.90;;;;;;1724141;81;20148;-94
2021/09/08 16:24:55;;;;;;;;;;;24.70;99.90;;;;;;1721998;82;20187;-93
2021/09/08 16:27:13;;;;;;;;;;;24.60;99.90;;;;;;1728647;81;20120;-93
2021/09/08 16:29:56;;;;;;;;;;;;;;;;;;;;;
2021/09/08 16:32:27;;;;;;;;;;;24.60;99.90;;;;;;1739992;82;20149;-92
2021/09/08 16:35:22;;;;;;;;;;;24.60;99.90;;;;;;1761220;80;20152;-93
2021/09/08 16:40:52;;;;;;;;;;;24.70;99.90;;;;;;1814532;77;20168;-94
2021/09/08 16:43:43;;;;;;;;;;;24.60;99.90;;;;;;1819147;77;20114;-92
2021/09/08 16:46:25;;;;;;;;;;;24.60;99.90;;;;;;1789521;78;20186;-93
2021/09/08 16:49:15;;;;;;;;;;;24.60;99.90;;;;;;1815599;77;20191;-94
2021/09/08 16:52:17;;;;;;;;;;;24.60;99.90;;;;;;1813678;77;20113;-93
2021/09/08 16:55:08;;;;;;;;;;;24.60;99.90;;;;;;1818007;77;20163;-93
2021/09/08 16:58:03;;;;;;;;;;;24.60;99.90;;;;;;1802761;79;20172;-93
2021/09/08 17:00:50;;;;;;;;;;;24.70;99.90;;;;;;1812375;77;20205;-92
2021/09/08 17:03:43;;;;;;;;;;;24.70;99.90;;;;;;1788595;77;20119;-94
2021/09/08 17:06:35;;;;;;;;;;;24.70;99.90;;;;;;1839200;76;20438;-93
2021/09/08 17:09:26;;;;;;;;;;;24.70;99.90;;;;;;1858372;73;20096;-92
2021/09/08 17:12:03;;;;;;;;;;;24.70;99.90;;;;;;1850243;75;20231;-94
2021/09/08 17:14:51;;;;;;;;;;;24.60;99.90;;;;;;1851135;72;20832;-92
2021/09/08 17:17:42;;;;;;;;;;;24.70;99.90;;;;;;1896852;76;20167;-94